BON232 FACT-FAPE
Flight info
| Callsign | BON232 |
|---|---|
| Flight time | N/A |
| Altitude | 31000 |
| Route | OKTED1B OKTED UQ12 XUGOL UQ56 OKSET DCT PEV |
| Aircraft | A320/M-SDE3FGHIRWY/LB1 |
Departure
| Time | N/A |
|---|---|
| Airport | Cape Town International Airport (FACT) |
Arrival
| Time | 2026-04-28 19:31 |
|---|---|
| Airport | Chief Dawid Stuurman International Airport (FAPE) |
| Time | Latitude | Longitude | Altitude | Speed | Heading |
|---|---|---|---|---|---|
| 2026-04-28 18:56 | -34.20729 | 21.64927 | 31338 ft | 563 kts | 91° |
| 2026-04-28 18:56 | -34.20873 | 21.74392 | 31334 ft | 563 kts | 91° |
| 2026-04-28 18:57 | -34.21014 | 21.83689 | 31290 ft | 554 kts | 91° |
| 2026-04-28 18:57 | -34.21143 | 21.92831 | 31336 ft | 539 kts | 91° |
| 2026-04-28 18:58 | -34.21236 | 22.00772 | 31333 ft | 538 kts | 91° |
| 2026-04-28 18:58 | -34.21341 | 22.09817 | 31335 ft | 538 kts | 91° |
| 2026-04-28 18:59 | -34.21448 | 22.18857 | 31330 ft | 539 kts | 91° |
| 2026-04-28 18:59 | -34.21543 | 22.27917 | 31329 ft | 539 kts | 90° |
| 2026-04-28 19:00 | -34.21629 | 22.36971 | 31327 ft | 539 kts | 90° |
| 2026-04-28 19:00 | -34.21709 | 22.46031 | 31323 ft | 539 kts | 90° |
| 2026-04-28 19:01 | -34.21785 | 22.55035 | 31315 ft | 539 kts | 90° |
| 2026-04-28 19:01 | -34.21855 | 22.64099 | 31319 ft | 539 kts | 90° |
| 2026-04-28 19:02 | -34.21926 | 22.73163 | 31330 ft | 539 kts | 90° |
| 2026-04-28 19:02 | -34.21982 | 22.82230 | 31326 ft | 540 kts | 90° |
| 2026-04-28 19:03 | -34.22028 | 22.91311 | 31326 ft | 540 kts | 90° |
| 2026-04-28 19:03 | -34.22070 | 23.00385 | 31328 ft | 540 kts | 90° |
| 2026-04-28 19:04 | -34.22111 | 23.09465 | 31335 ft | 540 kts | 90° |
| 2026-04-28 19:04 | -34.22133 | 23.18550 | 31334 ft | 540 kts | 90° |
| 2026-04-28 19:05 | -34.22153 | 23.27618 | 31339 ft | 540 kts | 90° |
| 2026-04-28 19:05 | -34.22178 | 23.36695 | 31333 ft | 540 kts | 90° |
| 2026-04-28 19:06 | -34.22185 | 23.44239 | 31327 ft | 540 kts | 90° |
| 2026-04-28 19:06 | -34.22185 | 23.54856 | 31313 ft | 541 kts | 90° |
| 2026-04-28 19:07 | -34.22185 | 23.63952 | 31322 ft | 542 kts | 90° |
| 2026-04-28 19:07 | -34.22172 | 23.73061 | 31318 ft | 542 kts | 90° |
| 2026-04-28 19:08 | -34.22159 | 23.80640 | 31308 ft | 543 kts | 90° |
| 2026-04-28 19:08 | -34.22138 | 23.89839 | 30978 ft | 543 kts | 90° |
| 2026-04-28 19:09 | -34.22122 | 23.94398 | 30707 ft | 541 kts | 89° |
| 2026-04-28 19:09 | -34.22106 | 23.98937 | 29951 ft | 542 kts | 90° |
| 2026-04-28 19:09 | -34.22089 | 24.03416 | 29296 ft | 538 kts | 90° |
| 2026-04-28 19:09 | -34.22072 | 24.07923 | 28618 ft | 535 kts | 90° |
| 2026-04-28 19:10 | -34.22054 | 24.12391 | 28081 ft | 528 kts | 90° |
| 2026-04-28 19:10 | -34.22032 | 24.16781 | 27599 ft | 520 kts | 90° |
| 2026-04-28 19:10 | -34.22007 | 24.21132 | 27070 ft | 513 kts | 90° |
| 2026-04-28 19:10 | -34.21982 | 24.25380 | 26348 ft | 500 kts | 90° |
| 2026-04-28 19:11 | -34.21956 | 24.29534 | 25540 ft | 488 kts | 90° |
| 2026-04-28 19:11 | -34.21930 | 24.33563 | 24868 ft | 472 kts | 90° |
| 2026-04-28 19:11 | -34.21905 | 24.37474 | 24173 ft | 458 kts | 90° |
| 2026-04-28 19:11 | -34.21878 | 24.41267 | 23387 ft | 445 kts | 90° |
| 2026-04-28 19:12 | -34.21850 | 24.44977 | 22940 ft | 425 kts | 91° |
| 2026-04-28 19:12 | -34.21823 | 24.48449 | 22674 ft | 414 kts | 91° |
| 2026-04-28 19:12 | -34.21795 | 24.51863 | 22267 ft | 398 kts | 91° |
| 2026-04-28 19:12 | -34.21764 | 24.55153 | 21820 ft | 387 kts | 91° |
| 2026-04-28 19:13 | -34.21713 | 24.58392 | 21351 ft | 385 kts | 87° |
| 2026-04-28 19:13 | -34.21096 | 24.61572 | 20899 ft | 396 kts | 68° |
| 2026-04-28 19:13 | -34.19968 | 24.64629 | 20450 ft | 399 kts | 65° |
| 2026-04-28 19:13 | -34.18793 | 24.67655 | 20003 ft | 397 kts | 65° |
| 2026-04-28 19:14 | -34.17613 | 24.70663 | 19560 ft | 395 kts | 65° |
| 2026-04-28 19:14 | -34.16438 | 24.73643 | 19135 ft | 392 kts | 65° |
| 2026-04-28 19:14 | -34.15265 | 24.76598 | 18722 ft | 389 kts | 65° |
| 2026-04-28 19:14 | -34.14094 | 24.79533 | 18253 ft | 387 kts | 65° |
| 2026-04-28 19:15 | -34.12925 | 24.82449 | 17776 ft | 384 kts | 65° |
| 2026-04-28 19:15 | -34.11747 | 24.85332 | 17299 ft | 381 kts | 63° |
| 2026-04-28 19:15 | -34.10537 | 24.88163 | 16830 ft | 378 kts | 65° |
| 2026-04-28 19:15 | -34.09772 | 24.90041 | 16526 ft | 376 kts | 65° |
| 2026-04-28 19:16 | -34.08238 | 24.93808 | 15909 ft | 372 kts | 65° |
| 2026-04-28 19:16 | -34.07098 | 24.96595 | 15439 ft | 370 kts | 65° |
| 2026-04-28 19:16 | -34.05960 | 24.99367 | 14968 ft | 367 kts | 65° |
| 2026-04-28 19:16 | -34.04829 | 25.02112 | 14517 ft | 365 kts | 65° |
| 2026-04-28 19:17 | -34.03703 | 25.04841 | 14061 ft | 362 kts | 65° |
| 2026-04-28 19:17 | -34.02581 | 25.07548 | 13555 ft | 360 kts | 65° |
| 2026-04-28 19:17 | -34.01467 | 25.10231 | 13147 ft | 355 kts | 65° |
| 2026-04-28 19:17 | -34.00369 | 25.12879 | 12752 ft | 351 kts | 65° |
| 2026-04-28 19:18 | -33.99281 | 25.15495 | 12364 ft | 347 kts | 65° |
| 2026-04-28 19:18 | -33.98206 | 25.18084 | 11982 ft | 344 kts | 65° |
| 2026-04-28 19:18 | -33.97141 | 25.20643 | 11604 ft | 340 kts | 65° |
| 2026-04-28 19:18 | -33.96082 | 25.23183 | 11235 ft | 338 kts | 65° |
| 2026-04-28 19:19 | -33.95102 | 25.25529 | 10886 ft | 336 kts | 65° |
| 2026-04-28 19:19 | -33.94056 | 25.28033 | 10520 ft | 334 kts | 65° |
| 2026-04-28 19:19 | -33.93016 | 25.30526 | 10156 ft | 332 kts | 65° |
| 2026-04-28 19:19 | -33.91982 | 25.33001 | 9760 ft | 330 kts | 65° |
| 2026-04-28 19:20 | -33.90953 | 25.35460 | 9362 ft | 328 kts | 65° |
| 2026-04-28 19:20 | -33.89854 | 25.37861 | 8969 ft | 327 kts | 60° |
| 2026-04-28 19:20 | -33.88682 | 25.40195 | 8582 ft | 325 kts | 60° |
| 2026-04-28 19:20 | -33.87510 | 25.42513 | 8202 ft | 323 kts | 60° |
| 2026-04-28 19:21 | -33.86344 | 25.44818 | 7837 ft | 322 kts | 60° |
| 2026-04-28 19:21 | -33.85184 | 25.47111 | 7452 ft | 320 kts | 60° |
| 2026-04-28 19:21 | -33.84026 | 25.49399 | 7086 ft | 319 kts | 60° |
| 2026-04-28 19:21 | -33.82874 | 25.51671 | 6721 ft | 318 kts | 60° |
| 2026-04-28 19:22 | -33.81725 | 25.53937 | 6330 ft | 317 kts | 60° |
| 2026-04-28 19:22 | -33.80968 | 25.55433 | 6074 ft | 316 kts | 60° |
| 2026-04-28 19:22 | -33.79458 | 25.58427 | 5530 ft | 316 kts | 60° |
| 2026-04-28 19:22 | -33.78312 | 25.60712 | 5132 ft | 315 kts | 60° |
| 2026-04-28 19:23 | -33.77184 | 25.62973 | 4708 ft | 315 kts | 60° |
| 2026-04-28 19:23 | -33.76067 | 25.65227 | 4311 ft | 314 kts | 60° |
| 2026-04-28 19:23 | -33.74955 | 25.67486 | 3902 ft | 314 kts | 60° |
| 2026-04-28 19:23 | -33.73855 | 25.69754 | 3500 ft | 314 kts | 63° |
| 2026-04-28 19:24 | -33.73214 | 25.72221 | 3107 ft | 309 kts | 89° |
| 2026-04-28 19:24 | -33.73510 | 25.74683 | 3015 ft | 289 kts | 117° |
| 2026-04-28 19:24 | -33.74568 | 25.76536 | 3024 ft | 262 kts | 143° |
| 2026-04-28 19:24 | -33.75942 | 25.77851 | 3027 ft | 245 kts | 149° |
| 2026-04-28 19:25 | -33.77302 | 25.79050 | 2800 ft | 241 kts | 150° |
| 2026-04-28 19:25 | -33.78653 | 25.80232 | 2537 ft | 239 kts | 150° |
| 2026-04-28 19:25 | -33.80000 | 25.81383 | 2275 ft | 235 kts | 155° |
| 2026-04-28 19:25 | -33.81491 | 25.81891 | 2086 ft | 215 kts | 189° |
| 2026-04-28 19:26 | -33.82936 | 25.81613 | 2029 ft | 209 kts | 199° |
| 2026-04-28 19:26 | -33.84352 | 25.81190 | 2028 ft | 211 kts | 200° |
| 2026-04-28 19:26 | -33.85773 | 25.80746 | 2034 ft | 211 kts | 200° |
| 2026-04-28 19:26 | -33.87192 | 25.80315 | 2030 ft | 209 kts | 200° |
| 2026-04-28 19:27 | -33.88560 | 25.79769 | 2029 ft | 204 kts | 213° |
| 2026-04-28 19:27 | -33.89644 | 25.78702 | 2033 ft | 202 kts | 234° |
| 2026-04-28 19:27 | -33.90409 | 25.77293 | 2035 ft | 201 kts | 239° |
| 2026-04-28 19:27 | -33.91139 | 25.75889 | 2034 ft | 192 kts | 239° |
| 2026-04-28 19:28 | -33.91822 | 25.74575 | 2027 ft | 181 kts | 239° |
| 2026-04-28 19:28 | -33.92481 | 25.73309 | 2035 ft | 176 kts | 239° |
| 2026-04-28 19:28 | -33.93130 | 25.72060 | 2037 ft | 175 kts | 239° |
| 2026-04-28 19:28 | -33.93767 | 25.70834 | 1941 ft | 168 kts | 239° |
| 2026-04-28 19:29 | -33.94372 | 25.69670 | 1754 ft | 160 kts | 239° |
| 2026-04-28 19:29 | -33.94758 | 25.68928 | 1618 ft | 156 kts | 239° |
| 2026-04-28 19:29 | -33.95498 | 25.67502 | 1359 ft | 142 kts | 239° |
| 2026-04-28 19:29 | -33.96006 | 25.66524 | 1184 ft | 135 kts | 240° |
| 2026-04-28 19:30 | -33.96484 | 25.65607 | 950 ft | 126 kts | 241° |
| 2026-04-28 19:30 | -33.96947 | 25.64710 | 789 ft | 127 kts | 241° |
| 2026-04-28 19:30 | -33.97420 | 25.63811 | 645 ft | 127 kts | 243° |
| 2026-04-28 19:30 | -33.97883 | 25.62911 | 464 ft | 126 kts | 242° |
| 2026-04-28 19:31 | -33.98354 | 25.62001 | 282 ft | 129 kts | 241° |
| 2026-04-28 19:31 | -33.98796 | 25.61136 | 219 ft | 101 kts | 238° |
| 2026-04-28 19:31 | -33.99037 | 25.60668 | 208 ft | 36 kts | 238° |
| 2026-04-28 19:31 | -33.99165 | 25.60426 | 208 ft | 33 kts | 238° |
| 2026-04-28 19:32 | -33.99273 | 25.60208 | 215 ft | 21 kts | 251° |
| 2026-04-28 19:32 | -33.99194 | 25.60104 | 212 ft | 18 kts | 329° |
| 2026-04-28 19:32 | -33.99097 | 25.60151 | 213 ft | 18 kts | 57° |
| 2026-04-28 19:32 | -33.99022 | 25.60286 | 212 ft | 20 kts | 56° |
| 2026-04-28 19:33 | -33.98942 | 25.60435 | 214 ft | 22 kts | 57° |
| 2026-04-28 19:33 | -33.98854 | 25.60597 | 214 ft | 24 kts | 57° |
| 2026-04-28 19:33 | -33.98761 | 25.60769 | 212 ft | 26 kts | 57° |
| 2026-04-28 19:33 | -33.98670 | 25.60937 | 215 ft | 23 kts | 58° |
| 2026-04-28 19:34 | -33.98590 | 25.61091 | 212 ft | 19 kts | 58° |
| 2026-04-28 19:34 | -33.98532 | 25.61204 | 212 ft | 16 kts | 58° |
| 2026-04-28 19:34 | -33.98477 | 25.61312 | 217 ft | 8 kts | 58° |
| 2026-04-28 19:34 | -33.98440 | 25.61314 | 212 ft | 6 kts | 303° |
| 2026-04-28 19:35 | -33.98415 | 25.61290 | 215 ft | 1 kts | 325° |
| 2026-04-28 19:35 | -33.98413 | 25.61289 | 214 ft | 0 kts | 328° |